M I D A S
Marine Information and Data Acquisition System
Tripno 682 of the Zeeleeuw from 2004-04-05 07:58:26 to 2004-04-05 12:58:35
Back to CruiseResearch ActivitiesStationsMapUnderway DataData graphs

EquipmentUnitsComment
TimeDGPSUTC
LatitudeDGPSDM.mWGS84
LongitudeDGPSDM.mWGS84
HeadingGyrodeg 
SOGDGPSknotsSpeed over ground
COGDGPSdegCourse over ground
DepthEcho soundermeters200 kHz
Missing or incorrect values are displayed as -999
Navigation data collected by the RV Zeeleeuw from 2004-04-05 07:58:26 to 2004-04-05 12:58:35
                                                                                    Next 1000 lines
Time Latitude Longitude Heading SOG COG Depth
2004-04-05 07:58:33 51°13.597 2°56.098 127   120 6.3
2004-04-05 07:58:38 51°13.597 2°56.098 127 0.1 37 6.3
2004-04-05 07:58:43 51°13.597 2°56.098 127   192 6.3
2004-04-05 07:58:47 51°13.597 2°56.098 126.9   160 6.3
2004-04-05 07:58:53 51°13.597 2°56.098 126.3   164 6.3
2004-04-05 07:58:57 51°13.597 2°56.098 125.2 0.1 192 6.3
2004-04-05 07:59:03 51°13.597 2°56.098 124.2 0.1 185 6.3
2004-04-05 07:59:09 51°13.597 2°56.098 123 0.1 192 6.4
2004-04-05 07:59:13 51°13.597 2°56.098 121.8 0.1 173 6.4
2004-04-05 07:59:17 51°13.597 2°56.098 120.4 0.1 186 6.4
2004-04-05 07:59:23 51°13.596 2°56.098 119.1 0.1 189 6.4
2004-04-05 07:59:29 51°13.596 2°56.097 117.9 0.1 197 6.4
2004-04-05 07:59:33 51°13.596 2°56.097 116.8 0.1 263 6.4
2004-04-05 07:59:38 51°13.596 2°56.096 116.3 0.4 287 6.4
2004-04-05 07:59:43 51°13.596 2°56.094 115.9 0.8 295 6.5
2004-04-05 07:59:47 51°13.596 2°56.092 115.9 1.1 290 6.6
2004-04-05 07:59:53 51°13.598 2°56.088 115.9 1.8 294 6.7
2004-04-05 07:59:58 51°13.599 2°56.084 116.1 2.1 293 4.6
2004-04-05 08:00:03 51°13.601 2°56.079 116.2 2.3 296 -999
2004-04-05 08:00:09 51°13.604 2°56.073 116.6 2.6 296 -999
2004-04-05 08:00:14 51°13.606 2°56.067 117.1 2.8 296 -999
2004-04-05 08:00:19 51°13.608 2°56.061 117.4 3 296 -999
2004-04-05 08:00:23 51°13.609 2°56.056 117.5 3.2 296 -999
2004-04-05 08:00:29 51°13.612 2°56.048 117.5 3.4 296 -999
2004-04-05 08:00:34 51°13.614 2°56.041 117.4 3.5 295 -999
2004-04-05 08:00:39 51°13.616 2°56.033 117.2 3.6 295 -999
2004-04-05 08:00:44 51°13.618 2°56.026 117.2 3.6 294 -999
2004-04-05 08:00:49 51°13.62 2°56.018 117.4 3.8 294 -999
2004-04-05 08:00:54 51°13.621 2°56.01 117.8 3.8 294 -999
2004-04-05 08:00:59 51°13.624 2°56.002 118.8 3.9 295 -999
2004-04-05 08:01:03 51°13.626 2°55.996 119.5 4 295 -999
2004-04-05 08:01:09 51°13.629 2°55.986 120.3 4.2 296 -999
2004-04-05 08:01:14 51°13.632 2°55.977 120.8 4.4 296 -999
2004-04-05 08:01:19 51°13.635 2°55.968 121.3 4.5 297 -999
2004-04-05 08:01:23 51°13.637 2°55.961 122 4.6 297 -999
2004-04-05 08:01:29 51°13.64 2°55.95 122.2 4.6 298 -999
2004-04-05 08:01:34 51°13.643 2°55.941 122.3 4.7 299 -999
2004-04-05 08:01:39 51°13.646 2°55.932 122.1 4.7 299 -999
2004-04-05 08:01:43 51°13.649 2°55.924 121.6 4.7 298 -999
2004-04-05 08:01:49 51°13.652 2°55.913 121 4.7 298 -999
2004-04-05 08:01:54 51°13.655 2°55.904 120.1 4.8 297 -999
2004-04-05 08:01:59 51°13.658 2°55.895 119.1 4.8 297 -999
2004-04-05 08:02:04 51°13.661 2°55.885 118 4.8 296 -999
2004-04-05 08:02:09 51°13.664 2°55.875 116.9 4.8 295 -999
2004-04-05 08:02:14 51°13.667 2°55.865 115.3 3.7 294 -999
2004-04-05 08:02:19 51°13.669 2°55.856 113.8 4.5 293 -999
2004-04-05 08:02:24 51°13.672 2°55.846 112.5 4.2 292 -999
2004-04-05 08:02:29 51°13.674 2°55.837 110.8 4.5 290 -999
2004-04-05 08:02:33 51°13.675 2°55.83 109.2 4.3 288 -999
2004-04-05 08:02:39 51°13.677 2°55.819 107.7 4.2 287 -999
2004-04-05 08:02:43 51°13.678 2°55.812 106.2 4.2 286 -999
2004-04-05 08:02:49 51°13.68 2°55.801 105.3 4.1 286 4.6
2004-04-05 08:02:54 51°13.681 2°55.794 104.4 3.5 284 -999
2004-04-05 08:02:59 51°13.681 2°55.787 102.8 3.1 281 -999
2004-04-05 08:03:03 51°13.682 2°55.783 100.6 2.6 283 -999
2004-04-05 08:03:07 51°13.682 2°55.78 98.7 2 280 11.5
2004-04-05 08:03:13 51°13.683 2°55.776 95.6 1.3 285 12
2004-04-05 08:03:18 51°13.683 2°55.775 92.5 0.7 284 12.1
2004-04-05 08:03:23 51°13.684 2°55.776 88.7 0.4 29 12.2
2004-04-05 08:03:29 51°13.685 2°55.778 83.4 0.5 44 12.2
2004-04-05 08:03:33 51°13.685 2°55.779 77.4 1 61 12.1
2004-04-05 08:03:38 51°13.686 2°55.781 71.1 0.9 57 12.1
2004-04-05 08:03:43 51°13.686 2°55.782 67.1 0.4 67 12.1
2004-04-05 08:03:49 51°13.686 2°55.781 63.8 0.1 240 12.1
2004-04-05 08:03:53 51°13.685 2°55.78 61.7 0.7 232 12.1
2004-04-05 08:03:58 51°13.684 2°55.778 59.7 1.1 236 12.1
2004-04-05 08:04:03 51°13.683 2°55.775 58.1 1.4 234 12.2
2004-04-05 08:04:07 51°13.682 2°55.773 57.3 1.7 235 12.1
2004-04-05 08:04:14 51°13.68 2°55.768 56.6 1.8 235 -999
2004-04-05 08:04:19 51°13.679 2°55.764 55.9 1.8 235 -999
2004-04-05 08:04:23 51°13.678 2°55.762 55.8 1.5 238 -999
2004-04-05 08:04:29 51°13.677 2°55.761 55.3 0.8 242 -999
2004-04-05 08:04:34 51°13.678 2°55.762 51.5 0.5 21 -999
2004-04-05 08:04:39 51°13.68 2°55.763 44.7 1.2 28 -999
2004-04-05 08:04:44 51°13.683 2°55.765 38 1.9 28 -999
2004-04-05 08:04:49 51°13.687 2°55.767 28.8 2.9 15 -999
2004-04-05 08:04:54 51°13.692 2°55.767 19.3 3.3 7 -999
2004-04-05 08:04:59 51°13.697 2°55.767 10.4 3.7 1 5
2004-04-05 08:05:03 51°13.702 2°55.766 3.2 4.1 351 13.3
2004-04-05 08:05:07 51°13.707 2°55.763 353.7 4.4 344 13
2004-04-05 08:05:13 51°13.713 2°55.758 345.9 4.4 330 12.9
2004-04-05 08:05:18 51°13.719 2°55.752 336.8 4.3 327 11.9
2004-04-05 08:05:23 51°13.723 2°55.747 331.1 4.3 326 10.9
2004-04-05 08:05:27 51°13.728 2°55.742 329.1 4.5 323 9.6
2004-04-05 08:05:33 51°13.734 2°55.734 327.9 5.1 322 9.1
2004-04-05 08:05:38 51°13.74 2°55.727 327.3 5.2 321 8.9
2004-04-05 08:05:43 51°13.746 2°55.719 327.2 5.5 321 8.8
2004-04-05 08:05:49 51°13.753 2°55.71 327.1 5.6 321 8.8
2004-04-05 08:05:53 51°13.758 2°55.703 327 5.9 321 8.8
2004-04-05 08:05:59 51°13.766 2°55.693 327.2 6.1 323 8.8
2004-04-05 08:06:03 51°13.771 2°55.687 327.9 6.2 324 8.8
2004-04-05 08:06:09 51°13.78 2°55.677 329.5 6.4 326 8.7
2004-04-05 08:06:13 51°13.787 2°55.671 331.1 6.7 328 8.9
2004-04-05 08:06:18 51°13.795 2°55.663 332.3 6.8 328 9
2004-04-05 08:06:23 51°13.803 2°55.655 332.3 6.8 328 9.4
2004-04-05 08:06:29 51°13.813 2°55.645 332.4 7.1 328 9.3
2004-04-05 08:06:33 51°13.821 2°55.639 334 7.4 331 9.5
2004-04-05 08:06:37 51°13.828 2°55.632 335.8 7.4 331 9.4
2004-04-05 08:06:43 51°13.839 2°55.623 337.2 7.6 334 9.3
2004-04-05 08:06:54 51°13.86 2°55.606 339 0.3 154 9.1
2004-04-05 08:06:58 51°13.868 2°55.601 339.5 7.3 334 9.1
2004-04-05 08:07:03 51°13.878 2°55.594 339.6 8.1 336 8.8
2004-04-05 08:07:07 51°13.887 2°55.588 340.3 7.9 336 8.8
2004-04-05 08:07:13 51°13.899 2°55.58 340.4 7.9 336 8.7
2004-04-05 08:07:18 51°13.909 2°55.572 340.3 8 335 8.7
2004-04-05 08:07:23 51°13.919 2°55.565 340.3 8 336 8.7
2004-04-05 08:07:27 51°13.927 2°55.56 340.7 8 336 8.9
2004-04-05 08:07:33 51°13.939 2°55.551 340.9 8.1 336 8.9
2004-04-05 08:07:37 51°13.947 2°55.545 340.7 8.1 335 8.9
2004-04-05 08:07:43 51°13.96 2°55.536 340.4 8.1 336 9.6
2004-04-05 08:07:49 51°13.972 2°55.527 340.5 8.2 335 9.5
2004-04-05 08:07:53 51°13.98 2°55.521 340.5 8.2 335 9.5
2004-04-05 08:07:57 51°13.989 2°55.515 340.4 8.2 335 9.6
2004-04-05 08:08:03 51°14.001 2°55.506 340.2 8.2 335 9.4
2004-04-05 08:08:09 51°14.013 2°55.497 340.4 8.2 337 9.5
2004-04-05 08:08:13 51°14.022 2°55.491 341.1 8.2 337 9.6
2004-04-05 08:08:18 51°14.032 2°55.484 341.4 8.2 336 9.8
2004-04-05 08:08:23 51°14.043 2°55.477 341 8.2 336 10.2
2004-04-05 08:08:29 51°14.055 2°55.468 340.7 8.2 336 10.2
2004-04-05 08:08:33 51°14.064 2°55.462 340.5 8.4 336 10.2
2004-04-05 08:08:38 51°14.075 2°55.454 340.2 8.6 335 10.3
2004-04-05 08:08:43 51°14.086 2°55.445 340 9 335 10.5
2004-04-05 08:08:49 51°14.1 2°55.435 340.4 9.1 335 10.5
2004-04-05 08:08:53 51°14.11 2°55.428 340.9 9.5 335 10.5
2004-04-05 08:08:59 51°14.124 2°55.418 340.7 9.6 335 10.5
2004-04-05 08:09:03 51°14.134 2°55.41 339.9 9.7 334 10.5
2004-04-05 08:09:07 51°14.144 2°55.402 338.6 9.9 332 10.5
2004-04-05 08:09:13 51°14.158 2°55.389 337.2 10 331 10.2
2004-04-05 08:09:19 51°14.172 2°55.375 336.1 10 330 10.4
2004-04-05 08:09:23 51°14.182 2°55.365 335.3 10.1 329 10.4
2004-04-05 08:09:29 51°14.196 2°55.35 333.1 10.1 326 10.4
2004-04-05 08:09:33 51°14.205 2°55.339 330.4 10.2 323 10.4
2004-04-05 08:09:38 51°14.216 2°55.325 328.1 10.2 321 10.3
2004-04-05 08:09:43 51°14.227 2°55.31 326.8 10.3 321 10.1
2004-04-05 08:09:49 51°14.239 2°55.292 325.1 10.3 319 10
2004-04-05 08:09:53 51°14.247 2°55.278 322.3 10.4 315 10.3
2004-04-05 08:09:59 51°14.259 2°55.258 320 10.5 314 10.3
2004-04-05 08:10:03 51°14.268 2°55.245 318.9 10.6 313 10.3
2004-04-05 08:10:07 51°14.276 2°55.232 320.1 10.7 315 10.4
2004-04-05 08:10:13 51°14.288 2°55.21 319.3 10.9 311 10.4
2004-04-05 08:10:18 51°14.298 2°55.192 317 11 311 10.3
2004-04-05 08:10:23 51°14.309 2°55.173 316.4 11.1 312 10.3
2004-04-05 08:10:29 51°14.322 2°55.152 317 11.1 313 10.3
2004-04-05 08:10:33 51°14.33 2°55.137 317.8 11.2 313 10.4
2004-04-05 08:10:38 51°14.341 2°55.119 317.8 11.3 313 10.4
2004-04-05 08:10:43 51°14.351 2°55.101 317.6 11.3 313 9.9
2004-04-05 08:10:47 51°14.36 2°55.086 317.4 11.3 313 9.6
2004-04-05 08:10:53 51°14.373 2°55.065 318.1 11.3 313 10
2004-04-05 08:10:58 51°14.383 2°55.045 317.1 11.3 310 10.1
2004-04-05 08:11:03 51°14.392 2°55.025 314.2 11.3 307 10.2
2004-04-05 08:11:09 51°14.401 2°54.999 310.5 11.4 303 10.2
2004-04-05 08:11:13 51°14.407 2°54.981 307.3 11.4 298 10.1
2004-04-05 08:11:18 51°14.414 2°54.958 304.8 11.4 296 9.9
2004-04-05 08:11:23 51°14.42 2°54.935 302.5 11.4 294 10
2004-04-05 08:11:28 51°14.425 2°54.911 299 11.4 289 10.2
2004-04-05 08:11:33 51°14.429 2°54.887 295 11.3 284 9.9
2004-04-05 08:11:37 51°14.431 2°54.867 290.8 11.4 281 9.9
2004-04-05 08:11:43 51°14.433 2°54.837 287.4 11.6 276 10
2004-04-05 08:11:49 51°14.434 2°54.806 283.8 11.7 274 9.9
2004-04-05 08:11:53 51°14.434 2°54.785 280.9 11.8 270 9.9
2004-04-05 08:11:57 51°14.434 2°54.764 277.9 11.9 269 9.8
2004-04-05 08:12:03 51°14.432 2°54.732 275 12 266 9.9
2004-04-05 08:12:09 51°14.429 2°54.7 272.1 12.1 264 9.7
2004-04-05 08:12:13 51°14.426 2°54.679 268.5 12.2 257 9.9
2004-04-05 08:12:18 51°14.421 2°54.653 263.5 12.3 253 9.8
2004-04-05 08:12:23 51°14.415 2°54.628 257.8 12.5 248 9.7
2004-04-05 08:12:29 51°14.406 2°54.597 254.6 12.5 248 9.7
2004-04-05 08:12:33 51°14.401 2°54.576 253.1 12.7 247 9.7
2004-04-05 08:12:38 51°14.394 2°54.551 252.2 12.7 246 9.5
2004-04-05 08:12:43 51°14.386 2°54.525 251.1 12.8 246 9.3
2004-04-05 08:12:47 51°14.379 2°54.504 250.2 12.9 244 9
2004-04-05 08:12:53 51°14.37 2°54.473 249.6 13.1 245 8.9
2004-04-05 08:12:58 51°14.363 2°54.447 250.2 13.2 245 8.8
2004-04-05 08:13:03 51°14.355 2°54.42 250.5 13.2 245 8.6
2004-04-05 08:13:07 51°14.348 2°54.399 250.1 13.3 243 8.5
2004-04-05 08:13:13 51°14.339 2°54.367 249.2 13.5 245 8.6
2004-04-05 08:13:18 51°14.331 2°54.34 250.2 13.5 245 8.4
2004-04-05 08:13:23 51°14.324 2°54.313 250.1 13.5 244 8.6
2004-04-05 08:13:27 51°14.317 2°54.291 250.4 13.5 246 8.3
2004-04-05 08:13:33 51°14.307 2°54.259 249.6 13.6 244 8.5
2004-04-05 08:13:38 51°14.299 2°54.232 249.5 13.6 245 8.3
2004-04-05 08:13:43 51°14.291 2°54.205 249.7 13.6 245 8.4
2004-04-05 08:13:47 51°14.284 2°54.183 250 13.7 245 8.5
2004-04-05 08:13:53 51°14.275 2°54.15 250.3 13.7 245 8.2
2004-04-05 08:13:57 51°14.268 2°54.128 250.3 13.8 246 8.4
2004-04-05 08:14:03 51°14.259 2°54.094 250.6 13.9 245 8.4
2004-04-05 08:14:07 51°14.252 2°54.072 250.8 13.8 246 8.5
2004-04-05 08:14:13 51°14.242 2°54.039 250.4 13.8 244 8.3
2004-04-05 08:14:18 51°14.234 2°54.011 250 13.9 244 8.3
2004-04-05 08:14:23 51°14.226 2°53.983 249.6 13.9 246 8.2
2004-04-05 08:14:29 51°14.215 2°53.95 249.7 14 244 8.3
2004-04-05 08:14:33 51°14.209 2°53.927 249.9 13.9 245 8.2
2004-04-05 08:14:38 51°14.2 2°53.899 250.1 14 244 8.3
2004-04-05 08:14:43 51°14.192 2°53.871 250.2 14 245 8.2
2004-04-05 08:14:49 51°14.182 2°53.838 250.7 14 245 8.3
2004-04-05 08:14:53 51°14.175 2°53.815 250.6 14 245 8.4
2004-04-05 08:14:58 51°14.167 2°53.788 251.3 14 245 8.3
2004-04-05 08:15:03 51°14.159 2°53.759 250.8 14 245 8.5
2004-04-05 08:15:07 51°14.152 2°53.736 250.8 14 245 8.5
2004-04-05 08:15:13 51°14.143 2°53.703 251.3 14.1 245 8.3
2004-04-05 08:15:18 51°14.134 2°53.674 250.5 14.2 245 8.5
2004-04-05 08:15:23 51°14.126 2°53.646 250.5 14.2 245 8.6
2004-04-05 08:15:27 51°14.12 2°53.623 251.1 14.1 245 8.6
2004-04-05 08:15:33 51°14.109 2°53.59 250.5 14.1 243 8.5
2004-04-05 08:15:38 51°14.1 2°53.562 249.7 14.1 244 8.6
2004-04-05 08:15:43 51°14.092 2°53.534 250.3 14.2 245 8.3
2004-04-05 08:15:47 51°14.086 2°53.511 250.7 14.2 245 8.7
2004-04-05 08:15:53 51°14.076 2°53.477 251.5 14.2 245 8.8
2004-04-05 08:15:57 51°14.069 2°53.454 251.4 14.1 244 8.8
2004-04-05 08:16:03 51°14.059 2°53.421 251.1 14 244 8.5
2004-04-05 08:16:07 51°14.052 2°53.398 250.5 14 245 8.6
2004-04-05 08:16:13 51°14.042 2°53.365 250.8 14.2 245 8.7
2004-04-05 08:16:18 51°14.034 2°53.337 251.1 14.1 244 8.9
2004-04-05 08:16:23 51°14.026 2°53.309 250.7 14.1 245 8.8
2004-04-05 08:16:29 51°14.016 2°53.275 250.8 14.1 245 8.9
2004-04-05 08:16:33 51°14.009 2°53.253 251.4 14 244 8.8
2004-04-05 08:16:38 51°14.001 2°53.225 250.5 14 245 9.1
2004-04-05 08:16:43 51°13.992 2°53.196 251.3 14 245 9.2
2004-04-05 08:16:47 51°13.986 2°53.174 251.4 14 246 9.1
2004-04-05 08:16:53 51°13.976 2°53.14 251.1 14 244 9.1
2004-04-05 08:16:58 51°13.968 2°53.112 251.1 14.1 246 9.4
2004-04-05 08:17:03 51°13.959 2°53.083 251.1 14.2 245 9.3
2004-04-05 08:17:09 51°13.95 2°53.049 250.8 14.2 246 9.4
2004-04-05 08:17:13 51°13.943 2°53.027 251.2 14.2 245 9.4
2004-04-05 08:17:18 51°13.934 2°52.998 251 14.2 245 9.4
2004-04-05 08:17:23 51°13.926 2°52.969 251.1 14.2 245 9.4
2004-04-05 08:17:29 51°13.916 2°52.935 251.5 14.2 244 9.4
2004-04-05 08:17:33 51°13.91 2°52.912 251 14.2 246 9.5
2004-04-05 08:17:38 51°13.901 2°52.884 250.9 14.2 243 9.3
2004-04-05 08:17:43 51°13.891 2°52.857 248.9 14.2 243 9.3
2004-04-05 08:17:47 51°13.883 2°52.835 247.5 14.2 241 9.4
2004-04-05 08:17:53 51°13.871 2°52.803 246 14.2 238 9.4
2004-04-05 08:17:57 51°13.863 2°52.781 244.5 14.3 238 9.4
2004-04-05 08:18:03 51°13.85 2°52.749 243.1 14.3 238 9.5
2004-04-05 08:18:09 51°13.837 2°52.718 242.9 14.3 238 9.5
2004-04-05 08:18:13 51°13.828 2°52.697 242.5 14.3 237 9.7
2004-04-05 08:18:17 51°13.819 2°52.676 241.9 14.2 236 9.6
2004-04-05 08:18:23 51°13.806 2°52.645 242.1 14.2 236 9.7
2004-04-05 08:18:29 51°13.793 2°52.613 242 14.2 236 9.5
2004-04-05 08:18:33 51°13.784 2°52.592 241.7 14.3 237 9.5
2004-04-05 08:18:38 51°13.774 2°52.566 242.7 14.2 237 9.5
2004-04-05 08:18:43 51°13.763 2°52.54 242.3 14.1 238 9.3
2004-04-05 08:18:49 51°13.75 2°52.508 242.1 14.2 236 9.4
2004-04-05 08:18:53 51°13.742 2°52.487 242.7 14.2 238 9.6
2004-04-05 08:18:59 51°13.729 2°52.455 243 14.2 237 9.5
2004-04-05 08:19:03 51°13.721 2°52.434 243 14.2 238 9.8
2004-04-05 08:19:09 51°13.707 2°52.403 243 14.2 237 9.8
2004-04-05 08:19:13 51°13.699 2°52.382 242.4 14.2 237 9.5
2004-04-05 08:19:19 51°13.686 2°52.35 242 14.2 237 9.6
2004-04-05 08:19:23 51°13.677 2°52.329 242.6 14.2 237 9.6
2004-04-05 08:19:29 51°13.664 2°52.297 242.9 14.2 238 9.6
2004-04-05 08:19:33 51°13.656 2°52.276 242.7 14.1 237 9.8
2004-04-05 08:19:38 51°13.645 2°52.25 243.1 14 237 9.7
2004-04-05 08:19:43 51°13.635 2°52.224 242.7 14.1 237 10.1
2004-04-05 08:19:47 51°13.626 2°52.204 243.3 14.1 236 9.9
2004-04-05 08:19:53 51°13.613 2°52.172 242.4 14.2 237 9.8
2004-04-05 08:19:58 51°13.602 2°52.146 242.4 14.1 237 9.7
2004-04-05 08:20:03 51°13.592 2°52.12 243.1 14.1 238 9.8
2004-04-05 08:20:09 51°13.579 2°52.088 242.5 14.1 236 9.9
2004-04-05 08:20:13 51°13.571 2°52.067 243 14.2 236 9.8
2004-04-05 08:20:18 51°13.56 2°52.041 242.9 14.2 237 9.8
2004-04-05 08:20:23 51°13.549 2°52.014 243.1 14.2 238 9.8
2004-04-05 08:20:29 51°13.537 2°51.982 243.3 14.3 238 9.9
2004-04-05 08:20:33 51°13.529 2°51.961 243.2 14.1 237 9.8
2004-04-05 08:20:37 51°13.52 2°51.94 243.2 14.2 237 9.8
2004-04-05 08:20:43 51°13.507 2°51.908 243.1 14.2 238 9.8
2004-04-05 08:20:49 51°13.494 2°51.877 243.2 14.1 237 9.7
2004-04-05 08:20:53 51°13.486 2°51.856 242.4 14.1 237 9.8
2004-04-05 08:20:57 51°13.477 2°51.835 242.6 14 236 9.6
2004-04-05 08:21:03 51°13.464 2°51.804 242.1 14 237 9.7
2004-04-05 08:21:09 51°13.452 2°51.773 242.7 14.1 237 9.5
2004-04-05 08:21:13 51°13.444 2°51.751 242.9 14.1 238 9.8
2004-04-05 08:21:18 51°13.433 2°51.725 243.8 14 238 9.8
2004-04-05 08:21:23 51°13.423 2°51.699 243 14.1 237 10
2004-04-05 08:21:29 51°13.41 2°51.667 243.4 14.1 237 10.1
2004-04-05 08:21:33 51°13.401 2°51.646 243.2 14.2 238 10.1
2004-04-05 08:21:38 51°13.39 2°51.62 243.1 14.1 237 9.8
2004-04-05 08:21:43 51°13.38 2°51.594 242.7 14 236 9.7
2004-04-05 08:21:47 51°13.371 2°51.573 242.4 14 237 9.5
2004-04-05 08:21:53 51°13.358 2°51.542 242.6 14.1 237 9.9
2004-04-05 08:21:58 51°13.348 2°51.516 243.6 13.9 237 9.4
2004-04-05 08:22:03 51°13.338 2°51.49 243.7 14 237 9.5
2004-04-05 08:22:07 51°13.33 2°51.469 243.3 14 239 9.6
2004-04-05 08:22:13 51°13.317 2°51.438 244.4 14.1 237 9.8
2004-04-05 08:22:19 51°13.306 2°51.405 243.7 14.1 240 9.9
2004-04-05 08:22:23 51°13.298 2°51.384 245.1 14 240 9.9
2004-04-05 08:22:29 51°13.287 2°51.351 245.3 14.1 239 9.9
2004-04-05 08:22:33 51°13.28 2°51.33 246.4 14.1 241 10
2004-04-05 08:22:39 51°13.268 2°51.297 246.9 14.1 241 10
2004-04-05 08:22:43 51°13.26 2°51.276 247.4 13.9 240 9.7
2004-04-05 08:22:49 51°13.249 2°51.243 246.9 14 241 9.7
2004-04-05 08:22:53 51°13.241 2°51.222 246.8 14 241 9.9
2004-04-05 08:22:58 51°13.232 2°51.195 247.5 14 242 9.8
2004-04-05 08:23:03 51°13.222 2°51.168 247.5 14 241 10
2004-04-05 08:23:09 51°13.211 2°51.136 247.3 13.8 240 9.7
2004-04-05 08:23:13 51°13.204 2°51.114 246.9 13.9 242 10
2004-04-05 08:23:18 51°13.194 2°51.088 247.5 13.9 241 9.9
2004-04-05 08:23:23 51°13.185 2°51.06 247.6 13.9 243 10
2004-04-05 08:23:27 51°13.178 2°51.039 247.3 14.1 241 10.1
2004-04-05 08:23:33 51°13.167 2°51.007 247.9 13.8 242 9.9
2004-04-05 08:23:38 51°13.158 2°50.98 247.3 13.8 241 10
2004-04-05 08:23:43 51°13.148 2°50.953 247.5 13.9 241 10
2004-04-05 08:23:49 51°13.138 2°50.92 247.6 14 242 9.9
2004-04-05 08:23:53 51°13.13 2°50.899 247.7 14 241 10.1
2004-04-05 08:23:58 51°13.121 2°50.871 247.7 13.9 243 10
2004-04-05 08:24:03 51°13.112 2°50.845 247.4 13.9 241 10
2004-04-05 08:24:09 51°13.1 2°50.813 247 13.8 241 10.2
2004-04-05 08:24:13 51°13.093 2°50.791 247 13.9 241 9.8
2004-04-05 08:24:19 51°13.082 2°50.758 246.7 13.9 242 9.9
2004-04-05 08:24:23 51°13.074 2°50.737 247.5 13.9 242 10
2004-04-05 08:24:29 51°13.063 2°50.705 247.5 13.9 241 9.9
2004-04-05 08:24:33 51°13.056 2°50.683 247.1 13.9 241 10.1
2004-04-05 08:24:39 51°13.044 2°50.651 247.3 13.9 241 10
2004-04-05 08:24:43 51°13.037 2°50.629 247.1 13.9 242 10.2
2004-04-05 08:24:47 51°13.029 2°50.608 247.4 13.9 241 10.1
2004-04-05 08:24:53 51°13.018 2°50.575 247.4 14 242 10.1
2004-04-05 08:24:58 51°13.009 2°50.548 247.5 14 242 10.1
2004-04-05 08:25:03 51°13 2°50.521 247.3 14 241 10.1
2004-04-05 08:25:07 51°12.992 2°50.499 247.2 13.8 241 10
2004-04-05 08:25:13 51°12.981 2°50.466 247 14 242 10.1
2004-04-05 08:25:18 51°12.972 2°50.439 247.5 14 242 10
2004-04-05 08:25:23 51°12.963 2°50.412 247.5 14 241 10.3
2004-04-05 08:25:29 51°12.952 2°50.38 247.5 14 242 10.2
2004-04-05 08:25:33 51°12.945 2°50.358 247.2 14.1 243 10.3
2004-04-05 08:25:39 51°12.933 2°50.326 248.2 14.1 241 10.2
2004-04-05 08:25:43 51°12.926 2°50.304 247.3 14 243 10.1
2004-04-05 08:25:49 51°12.915 2°50.271 247.6 14 243 10.2
2004-04-05 08:25:53 51°12.907 2°50.25 247.5 13.6 241 10.1
2004-04-05 08:25:57 51°12.9 2°50.229 247.1 13.6 240 10
2004-04-05 08:26:03 51°12.888 2°50.197 246.5 13.8 241 10.2
2004-04-05 08:26:07 51°12.881 2°50.175 247.3 13.9 242 10.2
2004-04-05 08:26:13 51°12.87 2°50.143 247.9 13.9 242 10.5
2004-04-05 08:26:18 51°12.861 2°50.117 248.4 13.7 241 10.1
2004-04-05 08:26:23 51°12.852 2°50.09 246.8 13.8 240 10.3
2004-04-05 08:26:29 51°12.841 2°50.057 246.6 13.9 242 10.3
2004-04-05 08:26:33 51°12.833 2°50.036 247 14.1 241 10.4
2004-04-05 08:26:38 51°12.824 2°50.01 247.5 13.9 240 10.5
2004-04-05 08:26:43 51°12.814 2°49.983 247.3 13.8 240 10.3
2004-04-05 08:26:49 51°12.803 2°49.951 246.5 13.7 241 10.2
2004-04-05 08:26:53 51°12.795 2°49.929 246.8 13.9 241 10.4
2004-04-05 08:26:58 51°12.787 2°49.903 247.6 13.9 242 10.2
2004-04-05 08:27:03 51°12.777 2°49.875 247.7 13.9 242 10.3
2004-04-05 08:27:09 51°12.767 2°49.843 247.8 14 243 10.4
2004-04-05 08:27:13 51°12.759 2°49.821 247.7 14.1 242 10.4
2004-04-05 08:27:18 51°12.75 2°49.793 247.4 14.1 242 10.6
2004-04-05 08:27:23 51°12.741 2°49.766 247.5 14.1 242 10.5
2004-04-05 08:27:29 51°12.729 2°49.734 247 14.2 242 10.4
2004-04-05 08:27:33 51°12.721 2°49.713 247.2 13.9 239 10.4
2004-04-05 08:27:37 51°12.714 2°49.69 246.1 14 242 10.5
2004-04-05 08:27:43 51°12.703 2°49.658 247.2 14.1 242 10.4
2004-04-05 08:27:47 51°12.696 2°49.636 247.4 14.1 241 10.6
2004-04-05 08:27:54 51°12.682 2°49.598 247.6 14 241 10.7
2004-04-05 08:27:58 51°12.675 2°49.576 247.5 14 242 10.4
2004-04-05 08:28:03 51°12.666 2°49.549 246.9 14 241 10.5
2004-04-05 08:28:07 51°12.658 2°49.527 246.9 14.1 241 10.6
2004-04-05 08:28:13 51°12.647 2°49.494 247.3 14.1 242 10.6
2004-04-05 08:28:18 51°12.637 2°49.467 247.6 14 241 10.6
2004-04-05 08:28:23 51°12.628 2°49.439 247.1 14.2 242 10.8
2004-04-05 08:28:29 51°12.617 2°49.406 247.3 14.2 242 10.6
2004-04-05 08:28:33 51°12.61 2°49.383 247.8 14.2 242 10.7
2004-04-05 08:28:38 51°12.6 2°49.356 247.7 14.2 242 10.6
2004-04-05 08:28:43 51°12.591 2°49.328 247.7 14.1 242 10.7
2004-04-05 08:28:47 51°12.583 2°49.307 247.4 14.2 241 10.5
2004-04-05 08:28:53 51°12.572 2°49.273 246.7 14.1 242 10.8
2004-04-05 08:28:58 51°12.563 2°49.246 247.2 14.1 242 10.6
2004-04-05 08:29:03 51°12.553 2°49.219 246.9 14.1 241 10.7
2004-04-05 08:29:09 51°12.542 2°49.186 247.5 14.1 242 10.6
2004-04-05 08:29:13 51°12.535 2°49.164 247.1 14.2 241 10.6
2004-04-05 08:29:18 51°12.526 2°49.136 247.5 14.2 243 10.8
2004-04-05 08:29:23 51°12.516 2°49.109 248 14 241 10.7
2004-04-05 08:29:29 51°12.506 2°49.075 247.7 14.2 242 10.7
2004-04-05 08:29:33 51°12.498 2°49.054 247.8 14 241 10.6
2004-04-05 08:29:39 51°12.487 2°49.021 247.5 14 241 10.7
2004-04-05 08:29:43 51°12.48 2°48.998 247.6 14.2 242 10.7
2004-04-05 08:29:49 51°12.469 2°48.965 247.4 14.2 243 10.7
2004-04-05 08:29:53 51°12.462 2°48.943 247.8 14.1 242 10.8
2004-04-05 08:29:58 51°12.452 2°48.915 247.7 14.1 242 10.7
2004-04-05 08:30:03 51°12.443 2°48.887 247.3 14.2 243 10.8
2004-04-05 08:30:07 51°12.436 2°48.865 247.4 14.2 241 10.7
2004-04-05 08:30:14 51°12.423 2°48.826 247.3 14.2 243 10.9
2004-04-05 08:30:19 51°12.413 2°48.799 247.9 14.1 241 10.9
2004-04-05 08:30:23 51°12.406 2°48.777 247.2 14.2 242 10.8
2004-04-05 08:30:29 51°12.395 2°48.744 247.3 14.2 242 10.8
2004-04-05 08:30:33 51°12.387 2°48.722 247.7 14.1 242 10.6
2004-04-05 08:30:38 51°12.378 2°48.694 247.3 14.1 242 10.7
2004-04-05 08:30:43 51°12.369 2°48.667 247.7 14.1 242 10.8
2004-04-05 08:30:49 51°12.358 2°48.633 246.8 14.2 241 10.9
2004-04-05 08:30:53 51°12.35 2°48.611 247.5 14.2 241 10.8
2004-04-05 08:30:59 51°12.339 2°48.578 247.3 14.2 242 11
2004-04-05 08:31:03 51°12.331 2°48.556 247.5 14.3 241 10.8
2004-04-05 08:31:07 51°12.324 2°48.534 247.3 14.1 242 10.9
2004-04-05 08:31:13 51°12.313 2°48.501 247 14.1 242 10.8
2004-04-05 08:31:18 51°12.304 2°48.474 247.2 14.2 242 10.9
2004-04-05 08:31:23 51°12.294 2°48.446 247.4 14.1 242 10.9
2004-04-05 08:31:29 51°12.283 2°48.413 247.6 14.1 242 10.9
2004-04-05 08:31:33 51°12.276 2°48.391 247 14.1 242 11
2004-04-05 08:31:38 51°12.267 2°48.363 247.1 14.2 241 11
2004-04-05 08:31:43 51°12.257 2°48.336 247.3 14.2 242 10.9
2004-04-05 08:31:49 51°12.246 2°48.303 247 14.1 241 11
2004-04-05 08:31:53 51°12.239 2°48.281 247.1 14.1 242 10.9
2004-04-05 08:31:58 51°12.229 2°48.254 247.5 14.1 242 10.8
2004-04-05 08:32:03 51°12.22 2°48.226 247.2 14.1 242 10.9
2004-04-05 08:32:07 51°12.213 2°48.204 247.2 14.1 241 11
2004-04-05 08:32:13 51°12.201 2°48.171 247.2 14.2 242 10.9
2004-04-05 08:32:18 51°12.192 2°48.143 247.3 14.3 242 10.9
2004-04-05 08:32:23 51°12.183 2°48.115 247.1 14.2 242 10.9
2004-04-05 08:32:29 51°12.172 2°48.082 247.2 14.2 241 11.1
2004-04-05 08:32:33 51°12.164 2°48.06 247.1 14.2 242 11.2
2004-04-05 08:32:38 51°12.155 2°48.032 247.5 14.2 242 11
2004-04-05 08:32:43 51°12.146 2°48.004 247.5 14.3 242 11
2004-04-05 08:32:49 51°12.135 2°47.971 247.1 14.3 241 11.1
2004-04-05 08:32:53 51°12.127 2°47.949 247.3 14.3 242 11
2004-04-05 08:32:57 51°12.12 2°47.927 247 14.2 242 11
2004-04-05 08:33:03 51°12.108 2°47.894 247.7 14.2 242 11.2
2004-04-05 08:33:07 51°12.101 2°47.871 247.6 14.2 242 11.1
2004-04-05 08:33:14 51°12.088 2°47.832 247.7 14.3 241 11
2004-04-05 08:33:19 51°12.079 2°47.804 247.1 14.3 242 11.1
2004-04-05 08:33:23 51°12.071 2°47.782 247.6 14.3 242 11
2004-04-05 08:33:29 51°12.06 2°47.749 247 14.2 241 10.9
2004-04-05 08:33:33 51°12.052 2°47.727 246.4 14.3 241 10.9
2004-04-05 08:33:38 51°12.043 2°47.699 247.4 14.2 244 11
2004-04-05 08:33:43 51°12.034 2°47.672 247.9 14.2 241 11.1
2004-04-05 08:33:49 51°12.023 2°47.638 247.5 14.4 242 10.9
2004-04-05 08:33:53 51°12.016 2°47.615 247.3 14.2 243 10.9
2004-04-05 08:33:57 51°12.008 2°47.593 247.9 14.2 242 10.9
2004-04-05 08:34:03 51°11.997 2°47.56 247.5 14.2 242 11.1
2004-04-05 08:34:08 51°11.988 2°47.533 247.7 14.1 241 10.9
2004-04-05 08:34:13 51°11.978 2°47.505 246.5 14.2 241 11.1
2004-04-05 08:34:18 51°11.969 2°47.478 247 14.2 242 11
2004-04-05 08:34:23 51°11.96 2°47.45 246.8 14.2 241 11.1
2004-04-05 08:34:29 51°11.948 2°47.417 247.8 14.2 241 11.1
2004-04-05 08:34:33 51°11.941 2°47.395 247.4 14.2 242 11
2004-04-05 08:34:38 51°11.932 2°47.367 247 14.2 242 11.1
2004-04-05 08:34:43 51°11.922 2°47.339 247 14.2 242 11
2004-04-05 08:34:49 51°11.911 2°47.306 247.3 14.2 243 11
2004-04-05 08:34:53 51°11.904 2°47.284 247.5 14.1 242 11
2004-04-05 08:34:59 51°11.893 2°47.25 247.7 14.2 242 10.8
2004-04-05 08:35:03 51°11.887 2°47.228 248.4 14.1 246 10.8
2004-04-05 08:35:09 51°11.877 2°47.193 250.5 14.2 246 10.8
2004-04-05 08:35:13 51°11.871 2°47.17 251.8 14.2 247 11
2004-04-05 08:35:19 51°11.862 2°47.135 252.9 14.2 247 10.9
2004-04-05 08:35:23 51°11.856 2°47.112 253.8 14.2 249 11
2004-04-05 08:35:29 51°11.847 2°47.077 254.3 14.2 248 11
2004-04-05 08:35:33 51°11.842 2°47.053 254.5 14.2 249 11
2004-04-05 08:35:37 51°11.836 2°47.03 254.7 14.3 248 11
2004-04-05 08:35:43 51°11.828 2°46.994 255 14.3 249 11
2004-04-05 08:35:47 51°11.822 2°46.971 254.9 14.3 249 11.2
2004-04-05 08:35:53 51°11.813 2°46.935 255 14.3 249 11.1
2004-04-05 08:35:57 51°11.808 2°46.911 254.9 14.3 249 11.1
2004-04-05 08:36:03 51°11.799 2°46.876 255 14.3 249 11.1
2004-04-05 08:36:09 51°11.791 2°46.841 254.6 14.3 248 11.3
2004-04-05 08:36:13 51°11.785 2°46.817 255 14.3 249 11.2
2004-04-05 08:36:19 51°11.776 2°46.782 254.7 14.4 249 11.4
2004-04-05 08:36:23 51°11.771 2°46.758 254.7 14.3 249 11.1
2004-04-05 08:36:27 51°11.765 2°46.735 254.7 14.3 248 11.3
2004-04-05 08:36:33 51°11.756 2°46.699 254.9 14.2 249 11.3
2004-04-05 08:36:38 51°11.749 2°46.67 254.9 14.2 248 11.3
2004-04-05 08:36:43 51°11.742 2°46.641 254.7 14.2 249 11.4
2004-04-05 08:36:47 51°11.736 2°46.617 254.9 14.2 249 11.4
2004-04-05 08:36:53 51°11.728 2°46.582 254.2 14.2 249 11.5
2004-04-05 08:36:58 51°11.721 2°46.553 254.7 14.2 249 11.4
2004-04-05 08:37:03 51°11.714 2°46.524 254.8 14.3 249 11.6
2004-04-05 08:37:09 51°11.705 2°46.488 254.7 14.3 249 11.5
2004-04-05 08:37:13 51°11.7 2°46.465 255 14.3 249 11.5
2004-04-05 08:37:18 51°11.692 2°46.435 254.7 14.3 249 11.5
2004-04-05 08:37:23 51°11.685 2°46.406 254.6 14.3 248 11.4
2004-04-05 08:37:29 51°11.677 2°46.37 254.4 14.3 249 11.5
2004-04-05 08:37:33 51°11.671 2°46.347 254.7 14.3 249 11.6
2004-04-05 08:37:37 51°11.665 2°46.323 254.6 14.3 249 11.6
2004-04-05 08:37:43 51°11.657 2°46.287 254.6 14.3 249 11.6
2004-04-05 08:37:49 51°11.648 2°46.252 254.8 14.2 249 11.6
2004-04-05 08:37:53 51°11.642 2°46.229 254.7 14.2 248 11.6
2004-04-05 08:37:57 51°11.636 2°46.206 254.2 14.3 248 11.6
2004-04-05 08:38:03 51°11.628 2°46.171 254.5 14.2 248 11.7
2004-04-05 08:38:09 51°11.619 2°46.136 254.4 14.2 249 11.5
2004-04-05 08:38:13 51°11.614 2°46.112 254.1 14.3 250 11.6
2004-04-05 08:38:18 51°11.606 2°46.083 254.5 14.3 249 11.5
2004-04-05 08:38:23 51°11.6 2°46.053 255 14.3 250 11.5
2004-04-05 08:38:29 51°11.591 2°46.018 255.1 14.3 249 11.7
2004-04-05 08:38:33 51°11.585 2°45.994 255.3 14.2 249 11.5
2004-04-05 08:38:37 51°11.58 2°45.971 254 14.2 248 11.4
2004-04-05 08:38:43 51°11.571 2°45.935 254.5 14.2 249 11.6
2004-04-05 08:38:49 51°11.562 2°45.9 254.7 14.3 249 11.4
2004-04-05 08:38:53 51°11.557 2°45.876 254 14.3 250 11.5
2004-04-05 08:38:57 51°11.551 2°45.853 254.7 14.3 250 11.5
2004-04-05 08:39:03 51°11.542 2°45.818 254.1 14.3 247 11.6
2004-04-05 08:39:09 51°11.534 2°45.783 253.8 14.1 248 11.6
2004-04-05 08:39:13 51°11.527 2°45.76 254 14.2 248 11.7
2004-04-05 08:39:18 51°11.52 2°45.731 254 14.1 249 11.5
2004-04-05 08:39:23 51°11.513 2°45.702 254 14 248 11.7
2004-04-05 08:39:29 51°11.504 2°45.668 254 14 248 11.6
2004-04-05 08:39:33 51°11.499 2°45.645 254.3 14.2 250 11.5
2004-04-05 08:39:38 51°11.492 2°45.615 254.6 14.2 248 11.7
2004-04-05 08:39:43 51°11.485 2°45.586 254.6 14.2 249 11.4
2004-04-05 08:39:49 51°11.476 2°45.551 254.2 14.2 248 11.5
2004-04-05 08:39:53 51°11.47 2°45.528 254 14.1 249 11.4
2004-04-05 08:39:58 51°11.463 2°45.499 254.1 14.1 248 11.4
2004-04-05 08:40:03 51°11.456 2°45.47 254 14.2 248 11.3
2004-04-05 08:40:09 51°11.447 2°45.435 254.4 14.1 250 11.5
2004-04-05 08:40:13 51°11.442 2°45.412 254.7 14.1 250 11.4
2004-04-05 08:40:19 51°11.433 2°45.377 254.9 14.1 248 11.6
2004-04-05 08:40:23 51°11.427 2°45.354 254.7 14.2 249 11.6
2004-04-05 08:40:29 51°11.419 2°45.318 254 14.3 249 11.5
2004-04-05 08:40:33 51°11.413 2°45.295 254.9 14.3 248 11.6
2004-04-05 08:40:38 51°11.406 2°45.265 254.1 14.4 249 11.7
2004-04-05 08:40:43 51°11.399 2°45.235 254.4 14.4 249 11.6
2004-04-05 08:40:47 51°11.393 2°45.212 254.7 14.3 249 11.7
2004-04-05 08:40:53 51°11.385 2°45.176 254.6 14.4 249 11.6
2004-04-05 08:40:57 51°11.379 2°45.153 254.5 14.3 250 11.6
2004-04-05 08:41:03 51°11.37 2°45.117 254.5 14.4 249 11.7
2004-04-05 08:41:07 51°11.365 2°45.093 254.2 14.4 249 11.6
2004-04-05 08:41:13 51°11.356 2°45.057 254.7 14.4 249 11.7
2004-04-05 08:41:18 51°11.349 2°45.028 254.7 14.4 249 11.7
2004-04-05 08:41:23 51°11.342 2°44.998 254.4 14.4 248 11.4
2004-04-05 08:41:29 51°11.333 2°44.963 254.4 14.4 249 11.5
2004-04-05 08:41:33 51°11.328 2°44.939 254.3 14.3 249 11.5
2004-04-05 08:41:38 51°11.32 2°44.91 254.6 14.3 248 11.5
2004-04-05 08:41:43 51°11.313 2°44.88 254.4 14.3 250 11.4
2004-04-05 08:41:49 51°11.305 2°44.845 254.4 14.3 249 11.5
2004-04-05 08:41:53 51°11.299 2°44.821 254.1 14.3 249 11.5
2004-04-05 08:41:58 51°11.292 2°44.792 254.4 14.4 249 11.5
2004-04-05 08:42:03 51°11.285 2°44.762 254.2 14.3 249 11.5
2004-04-05 08:42:07 51°11.279 2°44.739 254.3 14.4 249 11.7
2004-04-05 08:42:13 51°11.27 2°44.703 254.7 14.3 249 11.5
2004-04-05 08:42:18 51°11.263 2°44.674 253.9 14.3 249 11.5
2004-04-05 08:42:23 51°11.256 2°44.645 254.4 14.2 249 11.5
2004-04-05 08:42:29 51°11.248 2°44.609 254.6 14.2 248 11.5
2004-04-05 08:42:34 51°11.24 2°44.58 254.7 14.2 248 11.4
2004-04-05 08:42:38 51°11.235 2°44.557 254 14.2 249 11.4
2004-04-05 08:42:43 51°11.227 2°44.527 254.2 14.2 249 11.6
2004-04-05 08:42:49 51°11.219 2°44.492 254.6 14.3 249 11.5
2004-04-05 08:42:53 51°11.213 2°44.469 254.7 14.2 249 11.4
2004-04-05 08:42:58 51°11.206 2°44.439 254.1 14.3 249 11.4
2004-04-05 08:43:03 51°11.199 2°44.41 254.5 14.3 249 11.4
2004-04-05 08:43:09 51°11.19 2°44.375 254.3 14.3 249 11.5
2004-04-05 08:43:13 51°11.185 2°44.351 254.4 14.3 250 11.5
2004-04-05 08:43:18 51°11.178 2°44.322 254.3 14.3 249 11.3
2004-04-05 08:43:23 51°11.171 2°44.292 254.5 14.3 250 11.4
2004-04-05 08:43:29 51°11.162 2°44.256 254.5 14.2 249 11.4
2004-04-05 08:43:33 51°11.157 2°44.233 254 14.3 249 11.6
2004-04-05 08:43:38 51°11.15 2°44.204 254.3 14.4 249 11.5
2004-04-05 08:43:43 51°11.143 2°44.174 254.3 14.3 250 11.3
2004-04-05 08:43:47 51°11.137 2°44.151 254.1 14.3 249 11.4
2004-04-05 08:43:53 51°11.128 2°44.115 254.3 14.3 250 11.4
2004-04-05 08:43:58 51°11.121 2°44.085 254.3 14.3 250 11.5
2004-04-05 08:44:03 51°11.114 2°44.056 254.2 14.3 249 11.5
2004-04-05 08:44:09 51°11.106 2°44.021 254.7 14.3 250 11.4
2004-04-05 08:44:13 51°11.1 2°43.997 254.7 14.3 248 11.6
2004-04-05 08:44:19 51°11.092 2°43.962 254 14.3 250 11.5
2004-04-05 08:44:23 51°11.087 2°43.938 254.3 14.2 250 11.5
2004-04-05 08:44:29 51°11.079 2°43.903 254.4 14.2 248 11.5
2004-04-05 08:44:33 51°11.073 2°43.88 254.6 14.3 250 11.5
2004-04-05 08:44:39 51°11.064 2°43.844 254.5 14.3 249 11.5
2004-04-05 08:44:43 51°11.059 2°43.821 254 14.3 249 11.4
2004-04-05 08:44:47 51°11.053 2°43.797 254.7 14.3 249 11.4
2004-04-05 08:44:53 51°11.044 2°43.762 254 14.2 248 11.3
2004-04-05 08:44:58 51°11.037 2°43.733 254 14.3 250 11.5
2004-04-05 08:45:03 51°11.03 2°43.703 254.1 14.3 249 11.4
2004-04-05 08:45:09 51°11.022 2°43.668 254.4 14.3 249 11.4
2004-04-05 08:45:13 51°11.016 2°43.644 254.6 14.2 249 11.5
2004-04-05 08:45:18 51°11.009 2°43.615 254.4 14.2 249 11.4
2004-04-05 08:45:23 51°11.002 2°43.586 254.1 14.3 249 11.4
2004-04-05 08:45:29 51°10.994 2°43.55 254.1 14.3 249 11.5
2004-04-05 08:45:33 51°10.988 2°43.527 254.6 14.2 249 11.4
2004-04-05 08:45:37 51°10.983 2°43.503 254.1 14.2 249 11.4
2004-04-05 08:45:43 51°10.974 2°43.468 254.3 14.2 249 11.5
2004-04-05 08:45:49 51°10.966 2°43.433 254.3 14.3 248 11.5
2004-04-05 08:45:53 51°10.96 2°43.41 254.6 14.2 248 11.4
2004-04-05 08:45:59 51°10.951 2°43.375 254 14.2 248 11.5
2004-04-05 08:46:03 51°10.946 2°43.352 254.1 14.1 248 11.3
2004-04-05 08:46:09 51°10.937 2°43.317 253.8 14.2 249 11.3
2004-04-05 08:46:13 51°10.932 2°43.293 254.4 14.2 249 11.4
2004-04-05 08:46:18 51°10.925 2°43.264 254.4 14.2 249 11.5
2004-04-05 08:46:23 51°10.918 2°43.235 254.3 14.2 249 11.5
2004-04-05 08:46:29 51°10.909 2°43.2 254.6 14.2 249 11.5
2004-04-05 08:46:33 51°10.904 2°43.176 254 14.2 249 11.5
2004-04-05 08:46:37 51°10.898 2°43.153 254.4 14.2 249 11.5
2004-04-05 08:46:43 51°10.89 2°43.117 254.2 14.2 249 11.5
2004-04-05 08:46:49 51°10.882 2°43.082 254.5 14.2 250 11.5
2004-04-05 08:46:53 51°10.876 2°43.059 254.6 14.2 249 11.5
2004-04-05 08:46:58 51°10.869 2°43.029 254 14.2 249 11.4
2004-04-05 08:47:03 51°10.862 2°43 254.1 14.2 249 11.4
2004-04-05 08:47:09 51°10.854 2°42.965 254.2 14.2 249 11.4
2004-04-05 08:47:13 51°10.848 2°42.941 254.3 14.2 250 11.5
2004-04-05 08:47:18 51°10.841 2°42.912 254.2 14.1 249 11.4
2004-04-05 08:47:23 51°10.834 2°42.883 253.8 14.1 249 11.4
2004-04-05 08:47:29 51°10.826 2°42.848 254 14.2 249 11.4
2004-04-05 08:47:33 51°10.821 2°42.824 254.6 14.2 250 11.4
2004-04-05 08:47:37 51°10.815 2°42.801 254.4 14.2 250 11.3
2004-04-05 08:47:43 51°10.807 2°42.766 254.2 14.1 250 11.4
2004-04-05 08:47:49 51°10.799 2°42.731 254.2 14.1 250 11.5
2004-04-05 08:47:53 51°10.793 2°42.708 254.6 14.1 249 11.3
2004-04-05 08:47:58 51°10.786 2°42.678 253.4 14.2 249 11.3
2004-04-05 08:48:03 51°10.779 2°42.649 254.2 14.2 250 11.3
2004-04-05 08:48:09 51°10.771 2°42.614 254.2 14.1 249 11.2
2004-04-05 08:48:13 51°10.765 2°42.591 254 14.1 249 11.4
2004-04-05 08:48:18 51°10.758 2°42.562 253.8 14.1 249 11.4
2004-04-05 08:48:23 51°10.751 2°42.532 254 14.1 249 11.4
2004-04-05 08:48:27 51°10.746 2°42.509 254.2 14.2 250 11.4
2004-04-05 08:48:33 51°10.738 2°42.474 254.6 14.1 250 11.5
2004-04-05 08:48:37 51°10.732 2°42.45 254.7 14.1 250 11.3
2004-04-05 08:48:43 51°10.724 2°42.416 254.1 14.1 249 11.3
2004-04-05 08:48:49 51°10.715 2°42.381 253.9 14.1 248 11.4
2004-04-05 08:48:53 51°10.71 2°42.358 254.4 14 250 11.4
2004-04-05 08:48:59 51°10.702 2°42.323 254.5 14.1 249 11.4
2004-04-05 08:49:03 51°10.697 2°42.3 254.7 14 250 11.4
2004-04-05 08:49:09 51°10.688 2°42.265 254.4 14 249 11.3
2004-04-05 08:49:13 51°10.683 2°42.242 254.2 14.1 249 11.4
2004-04-05 08:49:18 51°10.676 2°42.212 254.2 14.2 250 11.4
2004-04-05 08:49:23 51°10.669 2°42.183 254.7 14.2 250 11.3
2004-04-05 08:49:29 51°10.661 2°42.148 254.6 14.1 250 11.4
2004-04-05 08:49:33 51°10.656 2°42.125 254.5 14.1 250 11.4
2004-04-05 08:49:37 51°10.65 2°42.101 254.6 14.1 250 11.4
2004-04-05 08:49:43 51°10.642 2°42.066 254.5 14.1 250 11.3
2004-04-05 08:49:49 51°10.634 2°42.031 254.2 14 249 11.3
2004-04-05 08:49:53 51°10.628 2°42.008 254 14.1 249 11.4
2004-04-05 08:49:59 51°10.62 2°41.973 254.2 14.1 250 11.3
2004-04-05 08:50:03 51°10.614 2°41.95 254.4 14 250 11.3
2004-04-05 08:50:09 51°10.606 2°41.915 253.9 14 250 11.3
2004-04-05 08:50:13 51°10.601 2°41.892 254.4 14 250 11.4
2004-04-05 08:50:18 51°10.594 2°41.863 254.2 14 249 11.4
2004-04-05 08:50:23 51°10.587 2°41.834 253.9 14.1 250 11.4
2004-04-05 08:50:29 51°10.579 2°41.799 254.4 14.1 250 11.5
2004-04-05 08:50:33 51°10.574 2°41.776 254.4 13.9 249 11.4
2004-04-05 08:50:37 51°10.568 2°41.753 254 13.9 249 11.1
2004-04-05 08:50:43 51°10.56 2°41.718 253.4 13.9 250 11.3
2004-04-05 08:50:49 51°10.552 2°41.685 254.7 13.9 250 11.3
2004-04-05 08:50:53 51°10.546 2°41.661 254.6 13.9 250 11.4
2004-04-05 08:50:58 51°10.54 2°41.632 254.6 14 249 11.5
2004-04-05 08:51:03 51°10.533 2°41.604 254.7 14 250 11.4
2004-04-05 08:51:09 51°10.525 2°41.569 254.3 13.9 249 11.4
2004-04-05 08:51:13 51°10.52 2°41.546 254 14 250 11.4
2004-04-05 08:51:18 51°10.513 2°41.517 254.2 14 250 11.5
2004-04-05 08:51:23 51°10.506 2°41.488 254.7 13.9 250 11.5
2004-04-05 08:51:29 51°10.498 2°41.453 254.2 14 249 11.4
2004-04-05 08:51:33 51°10.493 2°41.43 254 14 249 11.5
2004-04-05 08:51:37 51°10.487 2°41.407 254.4 14 249 11.4
2004-04-05 08:51:43 51°10.479 2°41.372 254 14 250 11.5
2004-04-05 08:51:49 51°10.471 2°41.337 254.4 14 250 11.5
2004-04-05 08:51:54 51°10.464 2°41.309 255 14 250 11.4
2004-04-05 08:51:59 51°10.458 2°41.28 254.7 14 249 11.4
2004-04-05 08:52:03 51°10.452 2°41.256 254.1 14 251 11.4
2004-04-05 08:52:08 51°10.446 2°41.227 254.6 14 250 11.4
2004-04-05 08:52:13 51°10.439 2°41.199 254.4 14 250 11.3
2004-04-05 08:52:18 51°10.432 2°41.17 253.9 14 249 11.4
2004-04-05 08:52:23 51°10.425 2°41.141 253.9 14 250 11.4
2004-04-05 08:52:29 51°10.417 2°41.106 254 14 250 11.7
2004-04-05 08:52:33 51°10.412 2°41.083 254.7 13.9 249 11.4
2004-04-05 08:52:39 51°10.404 2°41.049 254 14 250 11.5
2004-04-05 08:52:43 51°10.398 2°41.025 254.7 13.9 250 11.6
2004-04-05 08:52:47 51°10.393 2°41.002 254.5 14 250 11.5
2004-04-05 08:52:53 51°10.385 2°40.968 255 13.9 249 11.6
2004-04-05 08:52:57 51°10.38 2°40.944 254.5 14 250 11.5
2004-04-05 08:53:03 51°10.372 2°40.91 254.1 14 250 11.4
2004-04-05 08:53:09 51°10.364 2°40.875 254.6 14 250 11.5
2004-04-05 08:53:13 51°10.358 2°40.852 254.2 13.9 250 11.5
2004-04-05 08:53:18 51°10.351 2°40.824 254.2 13.9 249 11.6
2004-04-05 08:53:23 51°10.345 2°40.795 254.6 13.9 250 11.6
2004-04-05 08:53:29 51°10.337 2°40.76 254.4 13.9 249 11.6
2004-04-05 08:53:33 51°10.332 2°40.737 254.2 13.9 251 11.6
2004-04-05 08:53:38 51°10.325 2°40.708 254.3 13.9 250 11.6
2004-04-05 08:53:43 51°10.319 2°40.679 254.5 13.9 251 11.6
2004-04-05 08:53:49 51°10.31 2°40.645 254.4 13.9 250 11.6
2004-04-05 08:53:53 51°10.305 2°40.622 254.6 13.9 250 11.5
2004-04-05 08:53:58 51°10.298 2°40.593 254.5 14 250 11.6
2004-04-05 08:54:03 51°10.291 2°40.564 254 14 249 11.5
2004-04-05 08:54:09 51°10.282 2°40.53 253.2 14 247 11.6
2004-04-05 08:54:13 51°10.277 2°40.507 251.9 14 248 11.7
2004-04-05 08:54:18 51°10.269 2°40.479 251.7 13.9 247 11.4
2004-04-05 08:54:23 51°10.261 2°40.451 250.8 13.8 245 11.7
2004-04-05 08:54:29 51°10.251 2°40.417 250.8 13.9 246 11.5
2004-04-05 08:54:33 51°10.245 2°40.395 250.4 13.9 247 11.7
2004-04-05 08:54:38 51°10.238 2°40.367 251.2 13.9 247 11.5
2004-04-05 08:54:43 51°10.23 2°40.338 251.5 13.9 247 11.7
2004-04-05 08:54:49 51°10.221 2°40.304 251.8 13.9 247 11.7
2004-04-05 08:54:53 51°10.215 2°40.282 251.3 14 247 11.7
2004-04-05 08:54:57 51°10.209 2°40.259 251 14 247 11.6
2004-04-05 08:55:03 51°10.2 2°40.225 251.2 13.9 248 11.5
2004-04-05 08:55:09 51°10.191 2°40.191 251.7 14 247 11.4
2004-04-05 08:55:13 51°10.185 2°40.169 251 13.9 247 11.6
2004-04-05 08:55:19 51°10.176 2°40.135 251.1 13.9 247 11.6
2004-04-05 08:55:23 51°10.17 2°40.112 250.9 14 247 11.6
2004-04-05 08:55:29 51°10.161 2°40.078 251.2 14 248 11.8
2004-04-05 08:55:33 51°10.155 2°40.055 251.5 13.9 247 11.7
2004-04-05 08:55:39 51°10.146 2°40.021 251.1 14 247 11.6
2004-04-05 08:55:43 51°10.139 2°39.998 251.1 14 247 11.7
2004-04-05 08:55:49 51°10.131 2°39.964 251.5 14 247 11.6
2004-04-05 08:55:53 51°10.124 2°39.941 251.6 14 247 11.6
2004-04-05 08:55:59 51°10.115 2°39.907 251.4 14 248 11.6
2004-04-05 08:56:03 51°10.109 2°39.884 251.4 14 247 11.7
2004-04-05 08:56:07 51°10.103 2°39.861 251.4 14 247 11.7
2004-04-05 08:56:13 51°10.094 2°39.827 251.6 14.1 247 11.6
2004-04-05 08:56:18 51°10.086 2°39.798 251.5 14.1 248 11.7
2004-04-05 08:56:23 51°10.079 2°39.77 251.5 14.1 247 11.5
2004-04-05 08:56:29 51°10.07 2°39.736 250.9 14.1 247 11.5
2004-04-05 08:56:33 51°10.064 2°39.713 251.1 14.1 247 11.6
2004-04-05 08:56:39 51°10.055 2°39.679 250.7 14.1 247 11.7
2004-04-05 08:56:43 51°10.049 2°39.656 251.3 14 247 11.6
2004-04-05 08:56:49 51°10.04 2°39.622 251.4 13.9 247 11.6
2004-04-05 08:56:53 51°10.033 2°39.599 251 14 247 11.7
2004-04-05 08:56:58 51°10.026 2°39.571 250.9 14 247 11.6
2004-04-05 08:57:03 51°10.018 2°39.542 251.1 13.9 248 11.7
2004-04-05 08:57:07 51°10.012 2°39.52 251.1 13.9 246 11.6
2004-04-05 08:57:13 51°10.003 2°39.486 250.8 13.9 246 11.8
2004-04-05 08:57:18 51°9.995 2°39.458 251.1 13.9 245 11.7
2004-04-05 08:57:23 51°9.988 2°39.43 250.7 13.9 248 11.6
2004-04-05 08:57:28 51°9.98 2°39.402 251.4 13.9 247 11.7
2004-04-05 08:57:34 51°9.971 2°39.368 251.3 13.8 247 11.7
2004-04-05 08:57:39 51°9.963 2°39.34 251.1 13.8 246 11.8
2004-04-05 08:57:43 51°9.957 2°39.318 251 13.8 246 11.8
2004-04-05 08:57:49 51°9.948 2°39.284 250.7 13.9 247 11.9
2004-04-05 08:57:53 51°9.942 2°39.261 251.1 13.9 248 11.9
2004-04-05 08:57:58 51°9.934 2°39.233 251.8 13.9 247 11.9
2004-04-05 08:58:03 51°9.927 2°39.205 251.3 13.9 247 11.8
2004-04-05 08:58:09 51°9.918 2°39.171 251.3 14 248 11.8
2004-04-05 08:58:13 51°9.912 2°39.148 251.1 13.9 247 11.8
2004-04-05 08:58:17 51°9.906 2°39.125 251.1 13.9 248 11.8
2004-04-05 08:58:23 51°9.897 2°39.091 251.1 13.9 247 11.9
2004-04-05 08:58:29 51°9.888 2°39.057 251.1 14 247 12
2004-04-05 08:58:33 51°9.882 2°39.034 251.2 14 247 11.9
2004-04-05 08:58:39 51°9.872 2°39 251 14 247 11.8
2004-04-05 08:58:43 51°9.866 2°38.977 251.1 13.9 247 11.9
2004-04-05 08:58:49 51°9.857 2°38.944 250.6 13.9 245 11.9
2004-04-05 08:58:53 51°9.851 2°38.921 251.1 13.9 247 11.8
2004-04-05 08:58:58 51°9.844 2°38.892 251.3 13.9 248 11.9
2004-04-05 08:59:03 51°9.837 2°38.864 251.5 13.9 248 12
2004-04-05 08:59:09 51°9.827 2°38.83 251.7 13.9 247 11.9
2004-04-05 08:59:13 51°9.822 2°38.807 251.4 13.9 248 12.1
2004-04-05 08:59:18 51°9.814 2°38.779 251.6 13.9 247 12.1
2004-04-05 08:59:23 51°9.807 2°38.751 251.3 13.9 248 12.1
2004-04-05 08:59:29 51°9.798 2°38.717 251.1 14 247 12.1
2004-04-05 08:59:33 51°9.791 2°38.694 251.2 13.9 247 12
2004-04-05 08:59:38 51°9.784 2°38.666 251.3 13.9 248 12.1
2004-04-05 08:59:43 51°9.776 2°38.638 251.1 14 247 12.1
2004-04-05 08:59:49 51°9.768 2°38.604 251.1 14 248 12.1
2004-04-05 08:59:53 51°9.762 2°38.581 251.4 14 248 12.1
2004-04-05 08:59:58 51°9.754 2°38.552 251.8 14 247 12.1
2004-04-05 09:00:03 51°9.747 2°38.524 251.4 14 248 12.2
2004-04-05 09:00:08 51°9.739 2°38.496 251.5 14 246 12.1
2004-04-05 09:00:13 51°9.732 2°38.467 251 14 247 12.2
2004-04-05 09:00:18 51°9.724 2°38.439 250.9 14 247 12.2
2004-04-05 09:00:23 51°9.717 2°38.411 251.5 14 247 12.1
2004-04-05 09:00:29 51°9.708 2°38.376 251.3 14 247 12.2
2004-04-05 09:00:33 51°9.702 2°38.354 251.4 14 247 12.2
2004-04-05 09:00:38 51°9.694 2°38.325 251.3 14 247 12.4
2004-04-05 09:00:43 51°9.686 2°38.296 251.4 14.1 247 12.4
2004-04-05 09:00:47 51°9.68 2°38.274 251.3 13.9 247 12.4
2004-04-05 09:00:53 51°9.671 2°38.24 251.2 14 247 12.5
2004-04-05 09:00:58 51°9.664 2°38.211 250.9 14 248 12.4
2004-04-05 09:01:03 51°9.656 2°38.183 251.6 14 247 12.4
2004-04-05 09:01:09 51°9.647 2°38.148 251.4 14 247 12.3
2004-04-05 09:01:13 51°9.641 2°38.126 251.3 14.1 247 12.4
2004-04-05 09:01:17 51°9.635 2°38.103 251.2 14 248 12.5
2004-04-05 09:01:23 51°9.626 2°38.068 251.4 14 247 12.4
2004-04-05 09:01:29 51°9.617 2°38.034 251.2 14 247 12.4
2004-04-05 09:01:33 51°9.611 2°38.011 251.1 14.1 248 12.5
2004-04-05 09:01:38 51°9.604 2°37.983 251.2 14.1 247 12.6
2004-04-05 09:01:43 51°9.596 2°37.954 251.7 14.1 248 12.5
2004-04-05 09:01:48 51°9.589 2°37.925 251.4 14.1 247 12.6
2004-04-05 09:01:53 51°9.581 2°37.897 251.8 14 247 12.6
2004-04-05 09:01:58 51°9.574 2°37.868 251.4 14 247 12.6
2004-04-05 09:02:03 51°9.566 2°37.84 251.3 14 248 12.7
2004-04-05 09:02:07 51°9.56 2°37.817 251.5 14 248 12.7
2004-04-05 09:02:13 51°9.552 2°37.783 251.3 14 248 12.6
2004-04-05 09:02:19 51°9.542 2°37.749 251.9 14 247 12.6
2004-04-05 09:02:23 51°9.536 2°37.726 251 14 247 12.6
2004-04-05 09:02:27 51°9.53 2°37.703 251.1 14 247 12.5
2004-04-05 09:02:33 51°9.521 2°37.669 251.4 14 247 12.7
2004-04-05 09:02:38 51°9.513 2°37.641 251.2 14 247 12.7
2004-04-05 09:02:43 51°9.506 2°37.612 251.5 14 247 12.8
2004-04-05 09:02:47 51°9.5 2°37.589 251.1 13.9 247 12.8
2004-04-05 09:02:53 51°9.491 2°37.556 251.5 13.9 247 12.9
2004-04-05 09:02:58 51°9.483 2°37.527 251.1 13.9 246 12.8
2004-04-05 09:03:03 51°9.476 2°37.499 251.1 13.9 248 12.8
2004-04-05 09:03:09 51°9.467 2°37.465 251.7 13.9 247 12.9
2004-04-05 09:03:13 51°9.461 2°37.442 251.1 14 247 12.9
2004-04-05 09:03:17 51°9.455 2°37.42 251.2 13.9 247 13.1
2004-04-05 09:03:23 51°9.446 2°37.386 251.5 14 246 12.8
2004-04-05 09:03:29 51°9.436 2°37.352 251.1 14.1 246 13
2004-04-05 09:03:33 51°9.43 2°37.329 251.1 13.9 247 13
2004-04-05 09:03:38 51°9.423 2°37.301 251.2 13.9 247 12.9
2004-04-05 09:03:43 51°9.415 2°37.273 251.1 13.9 247 13.1
2004-04-05 09:03:49 51°9.406 2°37.239 251.2 13.8 247 13.1
2004-04-05 09:03:53 51°9.4 2°37.217 251.1 13.9 247 13.2
2004-04-05 09:03:57 51°9.394 2°37.194 251.4 13.9 248 13.2
2004-04-05 09:04:03 51°9.385 2°37.16 251.8 13.9 247 13.3
2004-04-05 09:04:09 51°9.376 2°37.126 251.2 14 248 13.4
2004-04-05 09:04:13 51°9.37 2°37.103 251.1 14 247 13.4
2004-04-05 09:04:17 51°9.364 2°37.08 251.2 14 247 13.5
2004-04-05 09:04:23 51°9.355 2°37.046 251.5 14.1 247 13.4
2004-04-05 09:04:29 51°9.346 2°37.012 251.6 14.1 247 13.6
2004-04-05 09:04:34 51°9.339 2°36.983 251.8 14 247 13.5
2004-04-05 09:04:39 51°9.331 2°36.955 251.3 14.1 247 13.6
2004-04-05 09:04:43 51°9.325 2°36.932 251.1 14.1 247 13.7
2004-04-05 09:04:49 51°9.316 2°36.898 250.9 14.1 247 13.7
2004-04-05 09:04:53 51°9.31 2°36.875 251.2 14.1 247 13.8
2004-04-05 09:04:58 51°9.302 2°36.847 251.1 14 246 13.9
2004-04-05 09:05:03 51°9.294 2°36.819 250.7 14 246 13.8
2004-04-05 09:05:09 51°9.284 2°36.785 250 14 245 13.7
2004-04-05 09:05:13 51°9.277 2°36.763 249 14.1 245 14
2004-04-05 09:05:18 51°9.268 2°36.735 248.2 14 243 13.8
2004-04-05 09:05:23 51°9.26 2°36.708 247.5 14 245 13.8
2004-04-05 09:05:27 51°9.252 2°36.686 246.9 13.9 242 13.8
2004-04-05 09:05:33 51°9.242 2°36.653 246.8 14 244 13.9
2004-04-05 09:05:39 51°9.231 2°36.62 247.3 14 244 14
2004-04-05 09:05:43 51°9.224 2°36.598 246.9 14 243 14
2004-04-05 09:05:49 51°9.213 2°36.565 246.7 13.9 243 13.9
2004-04-05 09:05:53 51°9.206 2°36.543 246.7 14 242 14.2
2004-04-05 09:05:59 51°9.196 2°36.51 246.7 14 242 13.9
2004-04-05 09:06:03 51°9.189 2°36.488 246.7 13.9 243 14.1
2004-04-05 09:06:09 51°9.178 2°36.455 247.1 13.9 244 14
2004-04-05 09:06:13 51°9.171 2°36.433 247.5 13.9 243 14.1
2004-04-05 09:06:18 51°9.162 2°36.406 247.3 14 243 14.2
2004-04-05 09:06:23 51°9.154 2°36.378 247.2 14 243 14.1
2004-04-05 09:06:29 51°9.143 2°36.345 247.2 14 243 14.3
2004-04-05 09:06:33 51°9.136 2°36.323 246.7 14 242 14.2
2004-04-05 09:06:37 51°9.129 2°36.301 246.4 14 243 14.2
2004-04-05 09:06:43 51°9.118 2°36.268 246.4 14.1 242 14.2
2004-04-05 09:06:49 51°9.108 2°36.235 247.2 14 244 14.3
2004-04-05 09:06:53 51°9.101 2°36.212 246.9 14.1 242 14.3
2004-04-05 09:06:58 51°9.092 2°36.185 247.7 14.1 244 14.3
2004-04-05 09:07:03 51°9.084 2°36.156 247.1 14.2 243 14.2
2004-04-05 09:07:09 51°9.074 2°36.123 248.9 14.1 246 14.4
2004-04-05 09:07:13 51°9.068 2°36.1 249.2 14.1 244 14.5
2004-04-05 09:07:18 51°9.06 2°36.072 249.8 14 246 14.4
2004-04-05 09:07:23 51°9.052 2°36.044 249.9 14.1 246 14.4
2004-04-05 09:07:29 51°9.042 2°36.009 249.9 14.1 246 14.5
2004-04-05 09:07:33 51°9.036 2°35.987 250.4 14.1 246 14.5
2004-04-05 09:07:38 51°9.028 2°35.958 250.6 14 247 14.6
2004-04-05 09:07:43 51°9.021 2°35.931 250.8 13.9 246 14.4
2004-04-05 09:07:48 51°9.013 2°35.903 250.2 14 245 14.5
2004-04-05 09:07:53 51°9.005 2°35.874 250.3 13.9 246 14.5
2004-04-05 09:07:58 51°8.997 2°35.846 250.4 14 246 14.7
2004-04-05 09:08:03 51°8.99 2°35.818 250.4 14 247 14.7
2004-04-05 09:08:07 51°8.983 2°35.795 250.5 14 246 14.6
2004-04-05 09:08:13 51°8.973 2°35.76 250.3 14.2 247 14.8
2004-04-05 09:08:18 51°8.966 2°35.732 250.8 14.1 247 14.9
2004-04-05 09:08:23 51°8.957 2°35.704 250.7 13.9 246 14.8
2004-04-05 09:08:29 51°8.948 2°35.67 250.1 14 246 14.9
2004-04-05 09:08:33 51°8.942 2°35.648 250.4 14 245 14.9
2004-04-05 09:08:38 51°8.934 2°35.619 250.1 14 247 14.9
2004-04-05 09:08:43 51°8.927 2°35.591 250.5 14.1 247 15
2004-04-05 09:08:47 51°8.921 2°35.569 250.7 14 247 15
2004-04-05 09:08:53 51°8.912 2°35.535 250.6 14 246 15
2004-04-05 09:08:57 51°8.906 2°35.513 250.4 14 246 15.2
2004-04-05 09:09:03 51°8.896 2°35.479 250.3 14.1 245 15.3
2004-04-05 09:09:09 51°8.887 2°35.445 250.3 14 246 15.2
2004-04-05 09:09:13 51°8.88 2°35.423 250.3 14.1 245 15.4
2004-04-05 09:09:18 51°8.872 2°35.395 250.1 14.1 246 15.3
2004-04-05 09:09:23 51°8.864 2°35.366 250.4 14 246 15.5
2004-04-05 09:09:29 51°8.855 2°35.332 250.1 14.1 247 15.4
2004-04-05 09:09:33 51°8.849 2°35.31 250.6 14 247 15.5
2004-04-05 09:09:38 51°8.841 2°35.281 250.5 14.1 246 15.6
2004-04-05 09:09:43 51°8.833 2°35.253 250.4 14 246 15.5
2004-04-05 09:09:49 51°8.823 2°35.219 250.5 14.1 246 15.5
2004-04-05 09:09:53 51°8.817 2°35.196 250.5 14 246 15.4
2004-04-05 09:09:58 51°8.809 2°35.168 250.4 14 247 15.6
2004-04-05 09:10:03 51°8.801 2°35.139 250.4 14.1 246 15.6
2004-04-05 09:10:08 51°8.793 2°35.111 250.4 14.1 246 15.7
2004-04-05 09:10:13 51°8.786 2°35.083 250.4 14.1 246 15.8
2004-04-05 09:10:18 51°8.777 2°35.054 250.5 14.1 245 15.9
2004-04-05 09:10:23 51°8.77 2°35.028 250 13.3 245 15.7
2004-04-05 09:10:27 51°8.764 2°35.007 249.8 13 246 15.8
2004-04-05 09:10:33 51°8.756 2°34.979 250.4 11.4 246 16
2004-04-05 09:10:37 51°8.752 2°34.962 251.3 11.1 247 15.8
2004-04-05 09:10:43 51°8.745 2°34.938 251.6 9.8 247 16
2004-04-05 09:10:49 51°8.74 2°34.916 253.4 9.2 249 16.3
2004-04-05 09:10:53 51°8.737 2°34.902 255.3 8.5 251 16.3
2004-04-05 09:10:58 51°8.734 2°34.885 257.4 8 253 16.4
2004-04-05 09:11:03 51°8.731 2°34.869 259.8 7.6 253 16.6
2004-04-05 09:11:09 51°8.728 2°34.852 262.3 7.3 253 16.6
2004-04-05 09:11:13 51°8.727 2°34.841 264.2 6.4 258 16.6
2004-04-05 09:11:19 51°8.725 2°34.826 265.8 6.1 259 16.7
2004-04-05 09:11:23 51°8.724 2°34.817 268.5 5.7 260 16.5
2004-04-05 09:11:29 51°8.723 2°34.804 269.7 5.1 261 16.6
2004-04-05 09:11:33 51°8.722 2°34.795 270.7 4.8 262 16.6
2004-04-05 09:11:38 51°8.721 2°34.785 272.1 4.6 262 16.7
2004-04-05 09:11:43 51°8.72 2°34.776 272.9 4.3 262 16.8
2004-04-05 09:11:48 51°8.719 2°34.767 273.9 4.2 263 16.9
2004-04-05 09:11:53 51°8.719 2°34.758 274.3 3.9 263 16.9
2004-04-05 09:11:58 51°8.718 2°34.75 274.3 3.8 263 16.9
2004-04-05 09:12:03 51°8.718 2°34.742 274.7 3.5 266 17
2004-04-05 09:12:07 51°8.718 2°34.737 275.4 3.4 266 17.1
2004-04-05 09:12:13 51°8.718 2°34.728 276.7 3.3 267 17.1
2004-04-05 09:12:18 51°8.717 2°34.721 277.6 3.1 268 17.1
2004-04-05 09:12:23 51°8.717 2°34.715 278.1 3 269 17
2004-04-05 09:12:29 51°8.717 2°34.708 279.1 2.8 270 17
2004-04-05 09:12:33 51°8.717 2°34.704 280.2 2.5 273 16.8
2004-04-05 09:12:38 51°8.718 2°34.698 281.4 2.5 275 16.8
2004-04-05 09:12:43 51°8.718 2°34.693 282.2 2.3 274 16.6
2004-04-05 09:12:47 51°8.718 2°34.689 283.3 2.3 275 16.7
2004-04-05 09:12:53 51°8.718 2°34.684 284 2.1 276 16.7
2004-04-05 09:12:58 51°8.719 2°34.68 284.5 2 276 16.7
2004-04-05 09:13:03 51°8.719 2°34.676 284.9 2 276 16.8
2004-04-05 09:13:09 51°8.719 2°34.671 284.5 1.7 275 16.9
2004-04-05 09:13:13 51°8.719 2°34.668 284.1 1.7 274 16.9
2004-04-05 09:13:19 51°8.719 2°34.664 283.3 1.6 275 16.9
2004-04-05 09:13:23 51°8.719 2°34.661 281.9 1.6 269 16.9
2004-04-05 09:13:28 51°8.719 2°34.657 280.1 1.6 268 16.9
2004-04-05 09:13:33 51°8.719 2°34.654 277.2 1.6 267 16.8
2004-04-05 09:13:38 51°8.718 2°34.651 274.4 1.5 266 16.8
2004-04-05 09:13:43 51°8.718 2°34.647 271.4 1.5 260 16.8
2004-04-05 09:13:49 51°8.718 2°34.643 268.5 1.6 258 16.9
2004-04-05 09:13:53 51°8.717 2°34.641 265.3 1.6 249 16.9
2004-04-05 09:13:58 51°8.716 2°34.637 261.5 1.6 250 16.8
2004-04-05 09:14:03 51°8.715 2°34.634 256.9 1.8 240 16.8
2004-04-05 09:14:08 51°8.713 2°34.631 251.4 1.8 237 16.7
2004-04-05 09:14:13 51°8.712 2°34.628 246 1.8 227 16.8
2004-04-05 09:14:18 51°8.71 2°34.625 241.5 1.9 230 16.8
2004-04-05 09:14:23 51°8.708 2°34.622 237.4 2.1 224 17
2004-04-05 09:14:29 51°8.705 2°34.618 234 2.1 219 17
2004-04-05 09:14:33 51°8.703 2°34.616 230.8 2.3 213 16.9
2004-04-05 09:14:38 51°8.7 2°34.614 227.4 2.4 206 16.9
2004-04-05 09:14:43 51°8.696 2°34.611 224.2 2.4 208 17
2004-04-05 09:14:48 51°8.693 2°34.608 220.8 2.7 204 17
2004-04-05 09:14:53 51°8.689 2°34.606 217.7 2.8 205 17
2004-04-05 09:14:58 51°8.685 2°34.603 216 3 201 17.1
2004-04-05 09:15:03 51°8.681 2°34.6 215.5 3.1 204 17
2004-04-05 09:15:07 51°8.678 2°34.598 215.1 3.3 203 17
2004-04-05 09:15:13 51°8.673 2°34.593 215.2 3.5 209 17
2004-04-05 09:15:18 51°8.668 2°34.59 216.4 3.6 207 16.9
2004-04-05 09:15:23 51°8.664 2°34.586 217.5 3.7 207 16.7
2004-04-05 09:15:29 51°8.658 2°34.581 218.5 3.7 210 16.8
2004-04-05 09:15:33 51°8.655 2°34.578 220.1 3.7 212 16.8
2004-04-05 09:15:38 51°8.65 2°34.574 221.5 3.8 211 16.6
2004-04-05 09:15:43 51°8.646 2°34.569 222.7 3.8 213 16.6
2004-04-05 09:15:48 51°8.642 2°34.565 223.5 3.8 214 16.7
2004-04-05 09:15:53 51°8.637 2°34.56 224.6 3.8 214 16.9
2004-04-05 09:15:58 51°8.633 2°34.555 226.4 3.8 216 16.9
2004-04-05 09:16:03 51°8.629 2°34.55 227.9 3.9 215 17.1
2004-04-05 09:16:09 51°8.624 2°34.543 229.7 3.8 217 17
2004-04-05 09:16:13 51°8.621 2°34.54 230.6 3.8 217 16.7
2004-04-05 09:16:18 51°8.617 2°34.534 231.3 3.7 220 16.7
2004-04-05 09:16:23 51°8.613 2°34.529 232.8 3.8 221 16.7
2004-04-05 09:16:27 51°8.61 2°34.524 234.1 3.9 223 16.6
2004-04-05 09:16:33 51°8.605 2°34.516 235.5 3.8 227 16.8
2004-04-05 09:16:38 51°8.602 2°34.51 237.4 3.9 229 16.7
2004-04-05 09:16:43 51°8.598 2°34.503 239 3.8 228 16.7
2004-04-05 09:16:49 51°8.594 2°34.495 240.5 4 230 16.7
2004-04-05 09:16:53 51°8.592 2°34.49 241.8 3.9 231 16.6
2004-04-05 09:16:58 51°8.588 2°34.483 243.1 3.9 233 16.8
2004-04-05 09:17:03 51°8.585 2°34.476 243.1 3.9 234 16.7
2004-04-05 09:17:09 51°8.581 2°34.468 244 3.9 234 16.7
2004-04-05 09:17:13 51°8.579 2°34.462 244.5 3.9 233 16.7
2004-04-05 09:17:18 51°8.575 2°34.455 245 3.8 233 16.9
2004-04-05 09:17:23 51°8.572 2°34.449 245.3 3.8 233 16.8
2004-04-05 09:17:29 51°8.569 2°34.441 245.3 3.6 232 16.8
2004-04-05 09:17:33 51°8.567 2°34.436 245.2 3.5 235 16.8
2004-04-05 09:17:38 51°8.564 2°34.43 245.7 3.5 234 16.8
2004-04-05 09:17:43 51°8.561 2°34.424 246.3 3.5 235 16.9
2004-04-05 09:17:49 51°8.558 2°34.416 246.5 3.3 233 16.9
2004-04-05 09:17:53 51°8.555 2°34.412 246.8 3.3 233 16.9
2004-04-05 09:17:58 51°8.553 2°34.406 246.7 3.2 232 16.8
2004-04-05 09:18:03 51°8.55 2°34.401 246.6 3.2 233 16.8
2004-04-05 09:18:09 51°8.547 2°34.393 246.7 3.3 236 16.8
2004-04-05 09:18:13 51°8.545 2°34.388 247.5 3.4 236 16.8
2004-04-05 09:18:17 51°8.543 2°34.383 248.2 3.4 237 16.9
2004-04-05 09:18:23 51°8.54 2°34.376 249.4 3.3 237 16.9
2004-04-05 09:18:29 51°8.537 2°34.368 250.5 3.4 238 17
2004-04-05 09:18:33 51°8.535 2°34.363 251.4 3.5 241 16.9
2004-04-05 09:18:38 51°8.533 2°34.356 252.1 3.4 240 16.7
2004-04-05 09:18:43 51°8.53 2°34.35 252.8 3.3 240 16.6
2004-04-05 09:18:49 51°8.528 2°34.342 252.5 3.3 240 16.7
2004-04-05 09:18:53 51°8.526 2°34.337 252.7 3.5 241 16.7
2004-04-05 09:18:59 51°8.523 2°34.329 252.8 3.5 241 16.9
2004-04-05 09:19:03 51°8.521 2°34.323 252.9 3.6 243 17
2004-04-05 09:19:09 51°8.518 2°34.314 252.8 3.6 243 17
2004-04-05 09:19:13 51°8.516 2°34.308 252.9 3.8 243 17.1
2004-04-05 09:19:18 51°8.514 2°34.301 253.2 3.7 244 17
2004-04-05 09:19:23 51°8.512 2°34.294 253.2 3.7 242 16.9
2004-04-05 09:19:27 51°8.51 2°34.289 252.6 3.6 242 16.9
2004-04-05 09:19:33 51°8.507 2°34.28 251.8 3.7 241 17
2004-04-05 09:19:39 51°8.504 2°34.272 251.1 3.6 242 16.9
2004-04-05 09:19:43 51°8.502 2°34.266 250.2 3.6 238 16.8
2004-04-05 09:19:48 51°8.499 2°34.26 249.4 3.6 238 16.8
2004-04-05 09:19:53 51°8.496 2°34.253 247.7 3.6 235 16.7
2004-04-05 09:19:58 51°8.493 2°34.246 246.1 3.6 235 16.6
2004-04-05 09:20:03 51°8.49 2°34.24 245.5 3.6 235 16.8
2004-04-05 09:20:09 51°8.487 2°34.233 245 3.6 232 16.7
2004-04-05 09:20:13 51°8.484 2°34.228 244 3.4 231 16.5
2004-04-05 09:20:17 51°8.482 2°34.223 243.3 3.5 230 16.5
2004-04-05 09:20:23 51°8.478 2°34.217 243.3 3.3 232 16.6
2004-04-05 09:20:29 51°8.475 2°34.21 243.2 3.3 231 16.6
2004-04-05 09:20:33 51°8.472 2°34.206 243 3.2 232 16.7
2004-04-05 09:20:38 51°8.47 2°34.2 243.3 3.3 232 16.8
2004-04-05 09:20:43 51°8.467 2°34.194 244.1 3.2 232 16.9
2004-04-05 09:20:47 51°8.465 2°34.19 244.6 3.2 233 16.8
2004-04-05 09:20:53 51°8.462 2°34.183 245.2 3.2 235 16.8
2004-04-05 09:20:58 51°8.459 2°34.177 245.8 3.2 234 16.9
2004-04-05 09:21:03 51°8.456 2°34.172 246.3 3.2 234 16.9
2004-04-05 09:21:09 51°8.453 2°34.165 246.5 3.2 233 17
2004-04-05 09:21:13 51°8.451 2°34.161 246.6 3 231 16.7
2004-04-05 09:21:19 51°8.448 2°34.155 245.5 3.1 231 16.7
2004-04-05 09:21:23 51°8.445 2°34.15 244.5 3.1 231 16.6
2004-04-05 09:21:29 51°8.442 2°34.144 244 3.1 231 16.6
2004-04-05 09:21:33 51°8.44 2°34.14 244.6 3.1 232 16.6
2004-04-05 09:21:37 51°8.438 2°34.135 245 3.2 231 16.6
2004-04-05 09:21:43 51°8.434 2°34.128 245.5 3.2 233 16.7
2004-04-05 09:21:49 51°8.431 2°34.121 246 3.2 236 16.7